KCDW/CDW METAR and TAF weather

Enter ICAO airport designator
Station Type Date Time Source
KCDW METAR 2019/02/23 22:53 UTC NOAA

KCDW 232253Z 17003KT 10SM FEW020 BKN120 03/M02 A3033 RMK AO2 SLP276 T00331017


Station Type Date Time Source
KCDW Decoded METAR 2019/02/23 22:53 UTC NOAA

CALDWELL ESSEX COUNTY AIRPORT , NJ, United States (KCDW) 40-53N 074-17W 64M
Feb 23, 2019 - 05:53 PM EST / 2019.02.23 2253 UTC
Wind: from the S (170 degrees) at 3 MPH (3 KT):0
Visibility: 10 mile(s):0
Sky conditions: mostly cloudy
Temperature: 37.9 F (3.3 C)
Dew Point: 28.9 F (-1.7 C)
Relative Humidity: 69%
Pressure (altimeter): 30.33 in. Hg (1027 hPa)
ob: KCDW 232253Z 17003KT 10SM FEW020 BKN120 03/M02 A3033 RMK AO2 SLP276 T00331017
cycle: 23

Station Type Date Time Source
KCDW TAF UTC NOAA

Error!


Example: see airport list